South Sioux City, Nebraska
Current Conditions -  °F | °C
As of 11:52 PM on Sunday 21 Dec 2014 (Local Time) from KSUX Reporting Station
Haze Haze  
Wind Chill: 35°   Ceiling: 800
Heat Index: 42°   Visibility: 5mi
Dew Point: 40°   Wind: 13mph
Humidity: 92%   Direction: 150°SSE
Pressure: 29.6"   Gusts: NA
Location:  42.47°N, 96.41°W
Report Text: KSUX 220552Z 15011KT 5SM BR OVC008 06/04 A2960 RMK AO2 CIG 005V012 SLP030 60000 T00560044 10056 20050 400610006 58004
Loading
Personal Weather Stations






























Interactive Weather Map New forecast layout! Learn more

10-Day Weather Forecast

Advertisements
Track Severe Weather on mobile